Time;durP1;ratioP1;P1;durP2;ratioP2;P2;SDS_P1;SDS_P2;PMS_P1;PMS_P2;Temp;Humidity;BMP_temperature;BMP_pressure;BME280_temperature;BME280_humidity;BME280_pressure;Samples;Min_cycle;Max_cycle;Signal;HPM_P1;HPM_P2
2022/03/19 00:01:06;;;;;;;18.83;4.88;;;4.80;99.90;;;;;;5036795;28;20041;-72
2022/03/19 00:03:31;;;;;;;13.77;3.28;;;4.70;99.90;;;;;;5022370;28;20033;-71
2022/03/19 00:05:57;;;;;;;15.20;3.50;;;4.70;99.90;;;;;;5019420;28;20048;-71
2022/03/19 00:08:24;;;;;;;16.02;3.63;;;4.60;99.90;;;;;;4999116;28;20076;-71
2022/03/19 00:10:50;;;;;;;14.00;4.32;;;4.60;99.90;;;;;;5035050;28;20040;-72
2022/03/19 00:13:17;;;;;;;12.52;4.22;;;4.50;99.90;;;;;;5037131;28;20053;-72
2022/03/19 00:15:44;;;;;;;16.00;3.95;;;4.50;99.90;;;;;;5014288;28;20065;-72
2022/03/19 00:18:10;;;;;;;17.17;4.53;;;4.40;99.90;;;;;;5041116;28;20063;-73
2022/03/19 00:20:37;;;;;;;12.32;3.83;;;4.40;99.90;;;;;;4998697;28;20404;-72
2022/03/19 00:23:05;;;;;;;11.23;3.22;;;4.30;99.90;;;;;;5015211;28;20045;-71
2022/03/19 00:25:31;;;;;;;15.63;4.00;;;4.30;99.90;;;;;;5026188;28;20043;-72
2022/03/19 00:27:56;;;;;;;16.35;3.92;;;4.20;99.90;;;;;;5016868;28;20495;-71
2022/03/19 00:30:22;;;;;;;17.17;4.20;;;4.10;99.90;;;;;;5043092;28;20033;-71
2022/03/19 00:32:48;;;;;;;19.05;4.50;;;4.10;99.90;;;;;;5009205;28;20453;-71
2022/03/19 00:35:15;;;;;;;16.13;4.68;;;4.10;99.90;;;;;;5042533;28;20127;-71
2022/03/19 00:37:50;;;;;;;15.40;4.10;;;4.00;99.90;;;;;;5028142;28;20156;-71
2022/03/19 00:40:18;;;;;;;16.90;4.47;;;4.10;99.90;;;;;;5032353;28;20055;-72
2022/03/19 00:42:45;;;;;;;21.40;4.53;;;4.00;99.90;;;;;;5024935;28;20040;-71
2022/03/19 00:45:11;;;;;;;17.30;4.82;;;4.10;99.90;;;;;;5002865;28;20041;-74
2022/03/19 00:47:37;;;;;;;17.70;4.38;;;4.10;99.90;;;;;;5006489;28;20049;-74
2022/03/19 00:50:04;;;;;;;16.20;3.90;;;4.10;99.90;;;;;;5019985;28;20056;-75
2022/03/19 00:52:30;;;;;;;16.33;4.13;;;4.20;99.90;;;;;;5024961;28;20045;-74
2022/03/19 00:54:56;;;;;;;13.93;3.75;;;4.20;99.90;;;;;;5017191;28;20159;-75
2022/03/19 00:57:22;;;;;;;19.93;4.90;;;4.20;99.90;;;;;;5030399;28;20121;-74
2022/03/19 00:59:48;;;;;;;16.30;5.07;;;4.20;99.90;;;;;;5043253;28;20084;-74
2022/03/19 01:02:14;;;;;;;16.23;4.38;;;4.20;99.90;;;;;;5039572;28;20049;-74
2022/03/19 01:04:39;;;;;;;20.05;5.00;;;4.20;99.90;;;;;;5017704;28;20049;-74
2022/03/19 01:07:05;;;;;;;12.65;4.22;;;4.20;99.90;;;;;;5043213;28;20187;-74
2022/03/19 01:09:31;;;;;;;18.10;4.72;;;4.20;99.90;;;;;;5043329;28;20129;-74
2022/03/19 01:11:57;;;;;;;17.65;5.18;;;4.20;99.90;;;;;;5045902;28;20194;-71
2022/03/19 01:14:22;;;;;;;15.82;4.57;;;4.10;99.90;;;;;;5045781;28;20096;-71
2022/03/19 01:16:48;;;;;;;14.60;5.20;;;4.20;99.90;;;;;;5042981;28;20071;-71
2022/03/19 01:19:14;;;;;;;20.20;4.47;;;4.20;99.90;;;;;;5039211;28;20049;-71
2022/03/19 01:21:40;;;;;;;15.60;4.67;;;4.10;99.90;;;;;;5043724;28;20135;-74
2022/03/19 01:24:06;;;;;;;18.83;4.70;;;4.10;99.90;;;;;;5024948;28;20194;-71
2022/03/19 01:26:32;;;;;;;16.53;5.27;;;4.10;99.90;;;;;;5042558;28;20037;-71
2022/03/19 01:28:58;;;;;;;15.73;4.97;;;4.10;99.90;;;;;;5027155;28;20428;-71
2022/03/19 01:31:27;;;;;;;18.02;5.00;;;4.00;99.90;;;;;;5043200;28;20037;-71
2022/03/19 01:33:53;;;;;;;15.00;4.60;;;4.00;99.90;;;;;;5045712;28;20687;-71
2022/03/19 01:36:19;;;;;;;16.73;5.20;;;4.00;99.90;;;;;;5029092;28;20091;-71
2022/03/19 01:38:45;;;;;;;15.50;4.77;;;4.10;99.90;;;;;;5040474;28;20111;-71
2022/03/19 01:41:10;;;;;;;15.30;4.63;;;4.10;99.90;;;;;;5021702;28;20129;-71
2022/03/19 01:43:37;;;;;;;14.73;4.43;;;4.10;99.90;;;;;;5028088;28;20069;-71
2022/03/19 01:46:03;;;;;;;15.17;4.50;;;4.10;99.90;;;;;;5030342;28;20140;-71
2022/03/19 01:48:29;;;;;;;14.53;5.30;;;4.00;99.90;;;;;;5025549;28;20056;-71
2022/03/19 01:50:55;;;;;;;15.13;5.07;;;4.00;99.90;;;;;;5033184;28;20802;-71
2022/03/19 01:53:21;;;;;;;21.53;5.67;;;4.10;99.90;;;;;;5004264;28;20480;-71
2022/03/19 01:55:47;;;;;;;19.27;5.33;;;4.10;99.90;;;;;;5042598;28;20172;-71
2022/03/19 01:58:13;;;;;;;17.67;5.27;;;4.00;99.90;;;;;;5011715;28;20099;-71
2022/03/19 02:00:39;;;;;;;16.67;5.10;;;4.00;99.90;;;;;;5044349;28;20067;-71
2022/03/19 02:03:06;;;;;;;14.87;4.90;;;4.00;99.90;;;;;;5045465;28;20495;-72
2022/03/19 02:05:32;;;;;;;18.70;5.53;;;4.00;99.90;;;;;;5029826;28;20082;-74
2022/03/19 02:07:58;;;;;;;16.57;5.00;;;4.00;99.90;;;;;;5028862;28;20055;-74
2022/03/19 02:10:24;;;;;;;17.83;5.30;;;4.00;99.90;;;;;;5028831;28;20492;-73
2022/03/19 02:12:50;;;;;;;19.63;4.97;;;4.00;99.90;;;;;;5028283;28;20041;-74
2022/03/19 02:15:16;;;;;;;15.03;5.00;;;4.00;99.90;;;;;;5028033;28;20096;-74
2022/03/19 02:17:43;;;;;;;15.10;5.40;;;4.00;99.90;;;;;;5028315;28;20080;-72
2022/03/19 02:20:09;;;;;;;18.90;5.57;;;4.00;99.90;;;;;;5044614;28;20044;-72
2022/03/19 02:22:36;;;;;;;13.83;5.13;;;4.00;99.90;;;;;;5027689;28;20055;-72
2022/03/19 02:27:47;;;;;;;20.83;5.70;;;3.90;99.90;;;;;;5044127;28;20056;-72
2022/03/19 02:30:15;;;;;;;17.00;5.70;;;3.80;99.90;;;;;;5023618;28;20582;-72
2022/03/19 02:32:49;;;;;;;18.03;5.70;;;3.80;99.90;;;;;;5024698;28;20099;-72
2022/03/19 02:35:17;;;;;;;15.87;4.90;;;3.90;99.90;;;;;;5008462;28;20053;-72
2022/03/19 02:37:45;;;;;;;20.60;5.37;;;3.90;99.90;;;;;;5023997;28;20518;-72
2022/03/19 02:40:13;;;;;;;12.93;4.87;;;3.90;99.90;;;;;;5024259;28;20057;-72
2022/03/19 02:42:40;;;;;;;18.03;5.93;;;3.90;99.90;;;;;;5023923;28;20033;-71
2022/03/19 02:45:07;;;;;;;17.07;5.63;;;3.90;99.90;;;;;;4991905;28;20790;-71
2022/03/19 02:47:33;;;;;;;16.20;5.60;;;3.90;99.90;;;;;;5023268;28;20037;-71
2022/03/19 02:49:59;;;;;;;15.33;4.83;;;3.90;99.90;;;;;;5028777;28;20475;-72
2022/03/19 02:52:28;;;;;;;19.43;5.67;;;3.90;99.90;;;;;;5023162;28;20784;-71
2022/03/19 02:54:53;;;;;;;15.53;5.53;;;3.80;99.90;;;;;;4992370;28;20053;-72
2022/03/19 02:57:19;;;;;;;19.23;6.00;;;3.80;99.90;;;;;;5043849;28;20052;-71
2022/03/19 02:59:45;;;;;;;13.93;5.47;;;3.80;99.90;;;;;;5025544;28;20056;-72
2022/03/19 03:02:11;;;;;;;20.87;7.00;;;3.80;99.90;;;;;;5035395;28;20098;-71
2022/03/19 03:04:36;;;;;;;18.90;6.00;;;3.80;99.90;;;;;;5043142;28;20075;-71
2022/03/19 03:07:04;;;;;;;16.00;5.93;;;3.80;99.90;;;;;;5027260;28;20095;-72
2022/03/19 03:09:31;;;;;;;17.57;5.57;;;3.80;99.90;;;;;;5043565;28;20041;-71
2022/03/19 03:11:59;;;;;;;21.30;6.07;;;3.80;99.90;;;;;;5043482;28;20491;-71
2022/03/19 03:14:26;;;;;;;16.50;6.37;;;3.80;99.90;;;;;;5027575;28;20524;-71
2022/03/19 03:16:52;;;;;;;15.50;6.33;;;3.80;99.90;;;;;;5008518;28;20541;-71
2022/03/19 03:19:19;;;;;;;17.20;6.10;;;3.80;99.90;;;;;;4991351;28;20053;-71
2022/03/19 03:21:45;;;;;;;15.27;6.03;;;3.80;99.90;;;;;;5025039;28;20056;-72
2022/03/19 03:24:13;;;;;;;14.57;5.83;;;3.80;99.90;;;;;;5027053;28;20044;-71
2022/03/19 03:26:40;;;;;;;20.27;7.30;;;3.80;99.90;;;;;;5042673;28;20067;-71
2022/03/19 03:29:07;;;;;;;20.87;6.33;;;3.80;99.90;;;;;;5026732;28;20103;-72
2022/03/19 03:31:33;;;;;;;21.57;6.70;;;3.70;99.90;;;;;;5042236;28;20045;-71
2022/03/19 03:33:59;;;;;;;20.10;7.27;;;3.70;99.90;;;;;;5026703;28;20040;-72
2022/03/19 03:36:27;;;;;;;19.13;5.93;;;3.70;99.90;;;;;;5043093;28;20060;-71
2022/03/19 03:38:53;;;;;;;16.77;6.27;;;3.70;99.90;;;;;;5027358;28;20762;-72
2022/03/19 03:41:19;;;;;;;17.50;7.13;;;3.60;99.90;;;;;;5027344;28;20049;-72
2022/03/19 03:43:45;;;;;;;16.53;6.37;;;3.70;99.90;;;;;;5044023;28;20400;-72
2022/03/19 03:46:12;;;;;;;18.70;7.23;;;3.60;99.90;;;;;;5043754;28;20128;-72
2022/03/19 03:48:38;;;;;;;16.87;6.90;;;3.50;99.90;;;;;;5044097;28;20087;-74
2022/03/19 03:51:08;;;;;;;23.37;7.60;;;3.50;99.90;;;;;;5028976;28;20045;-74
2022/03/19 03:53:35;;;;;;;18.87;6.57;;;3.50;99.90;;;;;;5047093;28;20490;-74
2022/03/19 03:56:02;;;;;;;20.07;7.07;;;3.50;99.90;;;;;;5047566;28;20199;-75
2022/03/19 03:58:28;;;;;;;16.73;7.03;;;3.40;99.90;;;;;;5047465;28;20052;-72
2022/03/19 04:00:56;;;;;;;18.77;8.13;;;3.50;99.90;;;;;;5045609;28;20094;-72
2022/03/19 04:03:22;;;;;;;19.40;8.10;;;3.40;99.90;;;;;;5047485;28;20048;-72
2022/03/19 04:05:48;;;;;;;17.10;6.90;;;3.40;99.90;;;;;;5030485;28;20048;-72
2022/03/19 04:08:13;;;;;;;21.70;7.47;;;3.40;99.90;;;;;;5030752;28;20095;-72
2022/03/19 04:10:39;;;;;;;21.77;7.03;;;3.40;99.90;;;;;;5030030;28;20055;-72
2022/03/19 04:13:05;;;;;;;16.93;7.50;;;3.30;99.90;;;;;;5030670;28;20052;-72
2022/03/19 04:15:31;;;;;;;21.57;8.37;;;3.30;99.90;;;;;;5030046;28;20132;-72
2022/03/19 04:17:57;;;;;;;23.60;7.67;;;3.20;99.90;;;;;;5030138;28;20066;-71
2022/03/19 04:20:23;;;;;;;20.70;8.07;;;3.20;99.90;;;;;;5014284;28;20096;-72
2022/03/19 04:22:49;;;;;;;19.43;8.23;;;3.20;99.90;;;;;;5030100;28;20056;-72
2022/03/19 04:25:17;;;;;;;21.40;7.83;;;3.10;99.90;;;;;;5047206;28;20887;-72
2022/03/19 04:27:46;;;;;;;20.03;7.93;;;3.10;99.90;;;;;;5046834;28;20044;-72
2022/03/19 04:30:13;;;;;;;17.37;7.50;;;3.10;99.90;;;;;;5045056;28;20123;-72
2022/03/19 04:32:50;;;;;;;19.80;7.93;;;3.10;99.90;;;;;;5046830;28;20547;-71
2022/03/19 04:38:11;;;;;;;21.07;7.33;;;3.00;99.90;;;;;;5046763;28;20067;-71
2022/03/19 04:40:38;;;;;;;21.57;8.07;;;3.00;99.90;;;;;;5046363;28;20053;-71
2022/03/19 04:43:05;;;;;;;16.70;7.30;;;3.10;99.90;;;;;;5030174;28;20510;-72
2022/03/19 04:45:30;;;;;;;18.73;8.23;;;3.00;99.90;;;;;;5046814;28;20191;-72
2022/03/19 04:47:57;;;;;;;17.40;7.60;;;3.00;99.90;;;;;;5045818;28;20270;-71
2022/03/19 04:50:23;;;;;;;18.87;7.90;;;3.00;99.90;;;;;;5046272;28;20059;-71
2022/03/19 04:52:50;;;;;;;21.07;8.77;;;3.10;99.90;;;;;;5025440;28;20052;-72
2022/03/19 04:55:16;;;;;;;17.33;7.80;;;3.00;99.90;;;;;;5026681;28;20164;-74
2022/03/19 04:57:42;;;;;;;17.87;7.57;;;3.10;99.90;;;;;;5026459;28;20126;-74
2022/03/19 05:00:10;;;;;;;23.63;8.87;;;3.10;99.90;;;;;;5032095;28;20092;-74
2022/03/19 05:02:36;;;;;;;23.10;8.73;;;3.10;99.90;;;;;;5043716;28;20060;-74
2022/03/19 05:05:03;;;;;;;21.27;9.40;;;3.10;99.90;;;;;;5013566;28;20093;-74
2022/03/19 05:07:29;;;;;;;20.03;9.07;;;3.10;99.90;;;;;;5046243;28;20072;-74
2022/03/19 05:12:41;;;;;;;19.43;9.47;;;3.20;99.90;;;;;;5026089;28;20046;-71
2022/03/19 05:15:11;;;;;;;22.47;8.83;;;3.20;99.90;;;;;;5009531;28;20061;-71
2022/03/19 05:17:38;;;;;;;17.27;8.27;;;3.20;99.90;;;;;;5010487;28;20049;-71
2022/03/19 05:20:05;;;;;;;21.80;8.90;;;3.20;99.90;;;;;;5026665;28;20056;-72
2022/03/19 05:22:31;;;;;;;20.00;9.70;;;3.20;99.90;;;;;;5026859;28;20060;-71
2022/03/19 05:24:57;;;;;;;18.10;8.80;;;3.20;99.90;;;;;;5009345;28;20221;-71
2022/03/19 05:27:24;;;;;;;22.33;9.23;;;3.20;99.90;;;;;;5040760;28;20060;-70
2022/03/19 05:29:50;;;;;;;18.70;9.00;;;3.20;99.90;;;;;;5044854;28;20044;-70
2022/03/19 05:32:17;;;;;;;19.30;8.67;;;3.20;99.90;;;;;;5029008;28;20052;-70
2022/03/19 05:34:43;;;;;;;20.93;9.20;;;3.20;99.90;;;;;;5045978;28;20110;-70
2022/03/19 05:37:09;;;;;;;25.43;10.13;;;3.20;99.90;;;;;;5045333;28;20056;-71
2022/03/19 05:39:36;;;;;;;20.00;9.60;;;3.20;99.90;;;;;;5028728;28;20044;-73
2022/03/19 05:42:03;;;;;;;20.53;9.17;;;3.20;99.90;;;;;;5044561;28;20076;-73
2022/03/19 05:44:29;;;;;;;20.37;9.50;;;3.20;99.90;;;;;;5045566;28;20045;-73
2022/03/19 05:46:58;;;;;;;25.67;10.03;;;3.20;99.90;;;;;;5028750;28;20403;-73
2022/03/19 05:49:27;;;;;;;22.50;9.10;;;3.20;99.90;;;;;;5029141;28;20053;-71
2022/03/19 05:51:54;;;;;;;23.70;9.93;;;3.20;99.90;;;;;;5043346;28;20052;-71
2022/03/19 05:54:20;;;;;;;22.67;10.40;;;3.30;99.90;;;;;;5027506;28;20045;-71
2022/03/19 05:56:47;;;;;;;20.03;9.07;;;3.20;99.90;;;;;;5045367;28;20144;-71
2022/03/19 05:59:12;;;;;;;20.80;9.17;;;3.30;99.90;;;;;;5043987;28;20057;-71
2022/03/19 06:01:39;;;;;;;18.37;9.53;;;3.30;99.90;;;;;;5027862;28;20096;-70
2022/03/19 06:04:05;;;;;;;22.37;9.10;;;3.50;99.90;;;;;;5028797;28;20067;-71
2022/03/19 06:06:31;;;;;;;18.83;8.90;;;3.80;99.90;;;;;;5028486;28;20483;-71
2022/03/19 06:08:57;;;;;;;21.87;8.73;;;4.00;99.90;;;;;;5044906;28;20056;-71
2022/03/19 06:11:23;;;;;;;19.00;8.73;;;4.20;99.90;;;;;;5027601;28;20037;-72
2022/03/19 06:13:49;;;;;;;19.40;8.90;;;4.10;99.90;;;;;;5028015;28;20122;-71
2022/03/19 06:16:15;;;;;;;19.33;7.77;;;4.00;99.90;;;;;;5044256;28;20069;-70
2022/03/19 06:18:46;;;;;;;18.17;8.27;;;3.90;99.90;;;;;;5028290;28;20052;-71
2022/03/19 06:21:12;;;;;;;21.65;8.45;;;3.90;99.90;;;;;;5044167;28;20152;-72
2022/03/19 06:23:37;;;;;;;23.43;8.70;;;3.80;99.90;;;;;;5045061;28;20078;-70
2022/03/19 06:26:03;;;;;;;18.90;8.80;;;3.80;99.90;;;;;;5044554;28;20048;-71
2022/03/19 06:28:29;;;;;;;21.70;8.30;;;3.80;99.90;;;;;;5011485;28;20132;-71
2022/03/19 06:30:55;;;;;;;19.37;7.90;;;3.90;99.90;;;;;;5007261;28;20393;-71
2022/03/19 06:33:21;;;;;;;19.50;7.80;;;3.90;99.90;;;;;;5024666;28;20045;-71
2022/03/19 06:38:31;;;;;;;19.63;8.07;;;4.00;99.90;;;;;;5010696;28;20060;-72
2022/03/19 06:41:00;;;;;;;20.13;8.23;;;4.10;99.90;;;;;;4991487;28;20163;-71
2022/03/19 06:43:27;;;;;;;19.97;7.87;;;4.10;99.90;;;;;;5008089;28;20091;-71
2022/03/19 06:45:58;;;;;;;20.63;8.27;;;4.20;99.90;;;;;;5024612;28;20041;-71
2022/03/19 06:48:27;;;;;;;19.73;8.03;;;4.20;99.90;;;;;;5011637;28;20055;-72
2022/03/19 06:50:56;;;;;;;21.47;8.07;;;4.30;99.90;;;;;;5043786;28;20107;-71
2022/03/19 06:53:23;;;;;;;19.83;7.87;;;4.30;99.90;;;;;;5043519;28;20055;-71
2022/03/19 06:55:48;;;;;;;19.10;7.63;;;4.40;99.90;;;;;;5044912;28;20052;-71
2022/03/19 06:58:14;;;;;;;16.80;7.20;;;4.40;99.90;;;;;;5043940;28;20598;-71
2022/03/19 07:00:41;;;;;;;17.90;7.30;;;4.50;99.90;;;;;;5043030;28;20048;-71
2022/03/19 07:03:07;;;;;;;18.17;7.85;;;4.60;99.90;;;;;;5044580;28;20059;-71
2022/03/19 07:05:33;;;;;;;17.00;7.03;;;4.70;99.90;;;;;;5011518;28;20107;-74
2022/03/19 07:08:01;;;;;;;18.20;7.47;;;4.70;99.90;;;;;;5011147;28;20056;-74
2022/03/19 07:10:27;;;;;;;19.57;8.30;;;5.00;99.90;;;;;;5026816;28;20072;-74
2022/03/19 07:12:58;;;;;;;18.00;8.10;;;5.00;99.90;;;;;;5027048;28;20049;-74
2022/03/19 07:15:28;;;;;;;22.90;8.07;;;5.10;99.90;;;;;;5026728;28;20052;-74
2022/03/19 07:17:58;;;;;;;17.63;8.10;;;5.20;99.90;;;;;;5027192;28;20140;-74
2022/03/19 07:20:24;;;;;;;17.65;7.55;;;5.40;99.90;;;;;;5042138;28;20125;-73
2022/03/19 07:22:58;;;;;;;20.10;6.82;;;5.50;99.90;;;;;;5042349;28;20128;-74
2022/03/19 07:25:25;;;;;;;18.92;7.65;;;5.70;99.90;;;;;;5041251;28;20059;-74
2022/03/19 07:27:53;;;;;;;19.45;7.30;;;5.80;99.90;;;;;;5042032;28;20913;-73
2022/03/19 07:30:19;;;;;;;16.17;7.20;;;6.00;99.90;;;;;;5025204;28;20052;-74
2022/03/19 07:32:46;;;;;;;16.52;7.18;;;6.00;99.90;;;;;;5021316;28;20308;-71
2022/03/19 07:35:13;;;;;;;16.10;7.10;;;6.10;99.90;;;;;;5007948;28;20053;-75
2022/03/19 07:37:41;;;;;;;20.88;6.70;;;6.30;99.90;;;;;;5023996;28;20515;-71
2022/03/19 07:40:08;;;;;;;19.27;7.40;;;6.40;99.90;;;;;;5023932;28;20182;-69
2022/03/19 07:42:35;;;;;;;24.10;7.50;;;6.50;99.90;;;;;;5023140;28;20056;-70
2022/03/19 07:45:02;;;;;;;15.25;6.35;;;6.60;99.90;;;;;;5023213;28;20053;-70
2022/03/19 07:47:29;;;;;;;16.17;6.10;;;6.80;99.90;;;;;;5025301;28;20064;-70
2022/03/19 07:49:56;;;;;;;15.93;6.63;;;6.90;99.90;;;;;;5025600;28;20486;-70
2022/03/19 07:52:22;;;;;;;16.90;6.95;;;7.00;99.90;;;;;;5004722;28;20037;-70
2022/03/19 07:54:47;;;;;;;17.70;7.40;;;7.10;99.90;;;;;;5008139;28;20065;-71
2022/03/19 07:57:14;;;;;;;15.57;6.75;;;7.20;99.90;;;;;;5043138;28;20048;-71
2022/03/19 07:59:40;;;;;;;18.15;7.15;;;7.40;99.90;;;;;;5041898;28;20041;-71
2022/03/19 08:02:06;;;;;;;13.45;5.90;;;7.50;99.90;;;;;;5041938;28;20041;-72
2022/03/19 08:04:32;;;;;;;17.20;6.32;;;7.60;99.90;;;;;;5042618;28;20584;-71
2022/03/19 08:06:58;;;;;;;18.10;6.95;;;7.70;99.90;;;;;;5043067;28;20647;-69
2022/03/19 08:09:24;;;;;;;18.30;6.15;;;7.90;99.90;;;;;;5043102;28;20052;-72
2022/03/19 08:11:51;;;;;;;17.92;6.97;;;7.90;99.90;;;;;;5042747;28;20072;-71
2022/03/19 08:14:17;;;;;;;14.75;6.15;;;8.00;99.90;;;;;;5026265;28;20522;-70
2022/03/19 08:16:44;;;;;;;16.70;6.53;;;8.20;99.90;;;;;;5043325;28;20127;-71
2022/03/19 08:19:13;;;;;;;16.88;6.25;;;8.30;99.90;;;;;;5043337;28;20508;-70
2022/03/19 08:21:43;;;;;;;14.98;6.85;;;8.40;99.90;;;;;;5043368;28;20441;-71
2022/03/19 08:24:10;;;;;;;21.58;6.40;;;8.50;99.90;;;;;;5027282;28;20052;-69
2022/03/19 08:26:36;;;;;;;14.27;5.50;;;8.50;99.90;;;;;;5043227;28;20559;-71
2022/03/19 08:29:02;;;;;;;16.98;5.65;;;8.60;99.90;;;;;;5043812;28;20053;-70
2022/03/19 08:31:28;;;;;;;14.15;5.72;;;8.60;99.90;;;;;;5026065;28;20049;-69
2022/03/19 08:33:56;;;;;;;14.88;6.18;;;8.70;99.90;;;;;;5043539;28;20051;-72
2022/03/19 08:36:22;;;;;;;13.63;5.68;;;8.70;99.90;;;;;;5027140;28;20119;-72
2022/03/19 08:41:33;;;;;;;18.17;6.43;;;8.90;99.90;;;;;;5032366;28;20053;-72
2022/03/19 08:43:59;;;;;;;15.77;5.38;;;9.00;99.90;;;;;;5029762;28;20056;-71
2022/03/19 08:46:25;;;;;;;18.35;6.60;;;9.10;99.90;;;;;;5045864;28;20459;-71
2022/03/19 08:48:51;;;;;;;13.07;5.35;;;9.20;99.90;;;;;;5029398;28;20276;-71
2022/03/19 08:54:03;;;;;;;12.23;4.78;;;9.40;99.90;;;;;;5060109;28;20105;-71
2022/03/19 08:56:30;;;;;;;15.35;4.60;;;9.50;99.90;;;;;;5009665;28;20141;-72
2022/03/19 08:58:56;;;;;;;15.23;4.55;;;9.60;99.90;;;;;;5043205;28;20152;-71
2022/03/19 09:01:22;;;;;;;12.13;4.50;;;9.70;99.90;;;;;;5038778;28;20536;-72
2022/03/19 09:03:48;;;;;;;15.68;4.47;;;9.70;99.90;;;;;;5009800;28;20060;-72
2022/03/19 09:06:14;;;;;;;14.65;4.28;;;9.80;99.90;;;;;;5026365;28;20393;-69
2022/03/19 09:08:41;;;;;;;13.57;3.90;;;9.90;99.90;;;;;;5009445;28;20052;-70
2022/03/19 09:11:07;;;;;;;17.55;4.45;;;10.00;99.00;;;;;;5029672;28;20577;-70
2022/03/19 09:13:33;;;;;;;12.85;3.55;;;10.00;99.90;;;;;;5029256;28;20095;-71
2022/03/19 09:15:59;;;;;;;12.93;3.88;;;10.10;99.00;;;;;;5045975;28;20045;-69
2022/03/19 09:18:26;;;;;;;10.30;2.90;;;10.20;96.90;;;;;;5029321;28;20056;-68
2022/03/19 09:20:52;;;;;;;13.60;3.92;;;10.20;95.70;;;;;;5029553;28;20048;-71
2022/03/19 09:23:18;;;;;;;13.95;3.75;;;10.20;94.90;;;;;;5047274;28;20584;-70
2022/03/19 09:25:43;;;;;;;12.38;3.38;;;10.30;94.00;;;;;;5029321;28;20052;-70
2022/03/19 09:28:09;;;;;;;12.05;3.40;;;10.40;93.00;;;;;;5046364;28;20169;-70
2022/03/19 09:30:35;;;;;;;11.10;3.35;;;10.40;91.90;;;;;;5044388;28;20701;-70
2022/03/19 09:33:01;;;;;;;11.23;2.85;;;10.50;92.00;;;;;;5045687;28;20151;-71
2022/03/19 09:35:27;;;;;;;12.18;2.95;;;10.60;90.70;;;;;;5044476;28;20068;-72
2022/03/19 09:37:53;;;;;;;11.38;2.97;;;10.60;90.90;;;;;;5029346;28;20090;-71
2022/03/19 09:40:19;;;;;;;9.65;3.85;;;10.80;92.40;;;;;;5029044;28;20049;-72
2022/03/19 09:42:50;;;;;;;9.40;2.50;;;10.90;91.50;;;;;;5045416;28;20071;-71
2022/03/19 09:45:20;;;;;;;;;;;11.00;87.60;;;;;;5024811;28;20114;-70
2022/03/19 09:47:46;;;;;;;10.95;2.92;;;11.00;78.30;;;;;;5030748;28;19928;-70
2022/03/19 09:50:13;;;;;;;12.43;3.72;;;10.90;77.30;;;;;;5037560;28;20037;-72
2022/03/19 09:52:42;;;;;;;12.02;2.75;;;10.90;76.90;;;;;;5029399;28;20048;-71
2022/03/19 09:55:15;;;;;;;10.98;3.30;;;10.80;74.00;;;;;;5023564;28;20061;-70
2022/03/19 09:57:41;;;;;;;13.40;3.17;;;10.90;79.40;;;;;;5028259;28;20099;-69
2022/03/19 10:00:08;;;;;;;9.85;2.63;;;11.00;78.40;;;;;;5018302;28;20140;-72
2022/03/19 10:02:48;;;;;;;10.25;2.65;;;11.00;81.50;;;;;;5034442;28;20664;-71
2022/03/19 10:10:47;;;;;;;12.40;2.80;;;11.30;72.40;;;;;;5033851;28;20393;-68
2022/03/19 10:13:12;;;;;;;12.98;3.35;;;11.30;72.90;;;;;;5044446;28;20061;-70
2022/03/19 10:15:43;;;;;;;9.57;3.45;;;11.30;72.80;;;;;;5026394;28;20627;-68
2022/03/19 10:18:10;;;;;;;12.25;2.55;;;11.30;73.40;;;;;;5019282;28;20091;-70
2022/03/19 10:20:37;;;;;;;9.15;3.00;;;11.30;70.10;;;;;;5018796;28;20049;-70
2022/03/19 10:23:04;;;;;;;10.90;2.45;;;11.40;70.60;;;;;;5037859;28;20679;-70
2022/03/19 10:25:33;;;;;;;8.52;2.40;;;11.40;70.70;;;;;;5037128;28;20419;-71
2022/03/19 10:28:02;;;;;;;9.52;2.60;;;11.50;67.30;;;;;;5060001;28;20406;-71
2022/03/19 10:30:41;;;;;;;8.27;2.67;;;11.60;67.10;;;;;;5013613;28;20114;-70
2022/03/19 10:33:08;;;;;;;8.23;2.63;;;11.70;67.30;;;;;;5029213;28;20051;-71
2022/03/19 10:35:38;;;;;;;11.55;2.90;;;11.80;65.90;;;;;;5035675;28;20135;-70
2022/03/19 10:38:23;;;;;;;7.05;2.88;;;11.80;68.90;;;;;;5054201;28;20504;-71
2022/03/19 10:40:51;;;;;;;9.88;2.80;;;11.90;70.00;;;;;;5024209;28;20052;-69
2022/03/19 10:43:20;;;;;;;8.73;2.28;;;12.00;67.00;;;;;;5040522;28;20150;-71
2022/03/19 10:45:52;;;;;;;11.90;3.22;;;12.00;64.00;;;;;;5039024;28;20056;-70
2022/03/19 10:48:22;;;;;;;9.48;2.40;;;12.00;67.50;;;;;;5035882;28;20173;-70
2022/03/19 10:50:49;;;;;;;10.48;2.58;;;12.10;61.90;;;;;;5037189;28;20068;-70
2022/03/19 10:53:16;;;;;;;10.05;2.30;;;12.00;61.90;;;;;;5029323;28;20130;-70
2022/03/19 10:55:42;;;;;;;8.73;2.65;;;12.00;62.20;;;;;;5035693;28;20037;-71
2022/03/19 10:58:08;;;;;;;9.90;3.63;;;12.10;64.30;;;;;;5017566;28;20130;-70
2022/03/19 11:00:35;;;;;;;9.88;2.33;;;12.10;62.50;;;;;;5011587;28;20069;-71
2022/03/19 11:03:11;;;;;;;8.02;2.08;;;12.20;63.30;;;;;;5035493;28;20135;-70
2022/03/19 11:05:38;;;;;;;7.32;2.17;;;12.20;61.90;;;;;;5027143;28;20558;-70
2022/03/19 11:08:08;;;;;;;8.48;2.00;;;12.30;58.90;;;;;;5018030;28;20468;-69
2022/03/19 11:10:38;;;;;;;7.43;1.60;;;12.30;58.20;;;;;;5033528;28;20242;-72
2022/03/19 11:13:06;;;;;;;6.88;1.80;;;12.40;58.60;;;;;;5051486;28;20501;-69
2022/03/19 11:15:36;;;;;;;6.20;2.25;;;12.40;58.10;;;;;;5032429;28;20115;-69
2022/03/19 11:18:06;;;;;;;5.72;1.80;;;12.50;56.50;;;;;;5023858;28;20521;-69
2022/03/19 11:20:33;;;;;;;8.73;1.83;;;12.60;54.10;;;;;;5040023;28;20132;-72
2022/03/19 11:23:01;;;;;;;6.40;1.92;;;12.50;55.10;;;;;;5041827;28;20500;-70
2022/03/19 11:25:27;;;;;;;9.85;2.20;;;12.60;56.10;;;;;;5008126;28;20063;-72
2022/03/19 11:28:06;;;;;;;6.68;1.92;;;12.60;56.30;;;;;;5040186;28;20053;-72
2022/03/19 11:30:36;;;;;;;5.40;1.75;;;12.70;54.50;;;;;;5026765;28;20051;-70
2022/03/19 11:33:02;;;;;;;;;;;12.80;55.00;;;;;;5042905;28;20553;-69
2022/03/19 11:35:28;;;;;;;6.03;1.90;;;12.80;54.50;;;;;;5040939;28;19921;-71
2022/03/19 11:38:03;;;;;;;6.78;1.98;;;12.80;54.90;;;;;;5041898;28;20138;-72
2022/03/19 11:40:32;;;;;;;9.32;1.90;;;12.80;56.00;;;;;;5042056;28;20052;-72
2022/03/19 11:43:01;;;;;;;6.90;2.35;;;12.80;56.40;;;;;;5040700;28;20487;-73
2022/03/19 11:45:37;;;;;;;5.75;1.50;;;12.80;55.60;;;;;;5024749;28;20048;-73
2022/03/19 11:48:04;;;;;;;5.68;1.75;;;12.90;56.70;;;;;;5024314;28;20048;-73
2022/03/19 11:50:31;;;;;;;7.00;1.73;;;13.10;52.80;;;;;;5023374;28;20542;-73
2022/03/19 11:52:56;;;;;;;4.90;1.60;;;13.10;52.90;;;;;;5040423;28;20044;-72
2022/03/19 11:55:29;;;;;;;4.88;1.88;;;13.10;54.50;;;;;;5041162;28;20049;-72
2022/03/19 11:58:00;;;;;;;8.65;1.92;;;13.10;53.70;;;;;;5040951;28;20148;-70
2022/03/19 12:00:31;;;;;;;7.10;1.83;;;13.20;52.70;;;;;;5037272;28;20049;-71
2022/03/19 12:03:12;;;;;;;7.13;1.75;;;13.10;53.20;;;;;;5034252;28;20649;-70
2022/03/19 12:05:46;;;;;;;4.85;1.40;;;13.10;54.50;;;;;;5042685;28;20052;-72
2022/03/19 12:08:14;;;;;;;6.43;1.92;;;13.10;52.50;;;;;;5024292;28;20049;-73
2022/03/19 12:11:16;;;;;;;5.88;1.80;;;13.10;53.30;;;;;;5041978;28;20041;-71
2022/03/19 12:13:47;;;;;;;6.80;1.90;;;13.10;52.60;;;;;;5033537;28;20057;-71
2022/03/19 12:16:44;;;;;;;7.68;1.77;;;13.10;53.20;;;;;;5044146;28;20048;-72
2022/03/19 12:19:10;;;;;;;5.70;1.80;;;13.20;51.70;;;;;;5044771;28;20052;-71
2022/03/19 12:21:39;;;;;;;6.88;1.85;;;13.30;53.40;;;;;;5043669;28;20212;-73
2022/03/19 12:24:09;;;;;;;8.77;1.90;;;13.30;51.60;;;;;;5025901;28;20569;-72
2022/03/19 12:26:43;;;;;;;;;;;13.30;51.00;;;;;;5043250;28;20415;-71
2022/03/19 12:29:11;;;;;;;4.28;1.42;;;13.30;51.90;;;;;;5060788;28;19921;-69
2022/03/19 12:31:45;;;;;;;6.63;2.28;;;13.40;53.30;;;;;;5043849;28;20048;-70
2022/03/19 12:34:19;;;;;;;3.70;1.48;;;13.50;54.30;;;;;;5044210;28;20565;-71
2022/03/19 12:36:46;;;;;;;7.20;2.00;;;13.60;51.10;;;;;;5046085;28;20080;-73
2022/03/19 12:39:13;;;;;;;6.10;1.55;;;13.60;51.60;;;;;;5011350;28;20049;-72
2022/03/19 12:41:40;;;;;;;4.32;1.67;;;13.60;50.40;;;;;;5040994;28;20036;-71
2022/03/19 12:44:08;;;;;;;4.85;1.27;;;13.60;48.40;;;;;;5045009;28;20044;-72
2022/03/19 12:46:35;;;;;;;5.20;1.45;;;13.60;50.70;;;;;;5030100;28;20084;-70
2022/03/19 12:49:15;;;;;;;3.72;1.50;;;13.60;50.90;;;;;;5044853;28;20808;-71
2022/03/19 12:51:45;;;;;;;4.68;1.50;;;13.70;49.60;;;;;;5041560;28;20045;-69
2022/03/19 12:54:31;;;;;;;4.43;1.63;;;13.80;48.60;;;;;;5044999;28;20661;-69
2022/03/19 12:56:58;;;;;;;6.10;1.80;;;13.70;48.90;;;;;;5044577;28;20098;-70
2022/03/19 12:59:26;;;;;;;3.90;1.40;;;13.60;48.40;;;;;;5044169;28;20061;-70
2022/03/19 13:01:53;;;;;;;4.38;1.42;;;13.60;49.70;;;;;;5029074;28;20139;-71
2022/03/19 13:04:29;;;;;;;3.33;1.20;;;13.60;49.80;;;;;;5029321;28;20049;-70
2022/03/19 13:06:57;;;;;;;8.45;1.30;;;13.70;50.10;;;;;;5028521;28;20048;-71
2022/03/19 13:09:38;;;;;;;5.25;1.42;;;13.80;48.60;;;;;;5027233;28;20392;-73